Carthage, Arkansas
Current Conditions -  °F | °C
As of 10:56 AM on Friday 19 Dec 2014 (Local Time) from KADF Reporting Station
Light Rain Light Rain  
Wind Chill: 40°   Ceiling: 600
Heat Index: 43°   Visibility: 3mi
Dew Point: 43°   Wind: 5mph
Humidity: 100%   Direction: 80°E
Pressure: 30.29"   Gusts: NA
Location:  34.08°N, 92.56°W
Report Text: KADF 191656Z AUTO 08004KT 3SM -RA BR BKN006 06/06 A3029 RMK AO2 T00610061 RAB37 P0000 SLP272
Loading
Personal Weather Stations






























Interactive Weather Map New forecast layout! Learn more

10-Day Weather Forecast

Advertisements
Track Severe Weather on mobile